createdAt,value
2022-08-16T00:00:46.671Z,72.98
2022-08-16T00:03:15.024Z,73.22
2022-08-16T00:05:48.039Z,73.29
2022-08-16T00:08:35.757Z,74.21
2022-08-16T00:11:06.319Z,73.15
2022-08-16T00:13:41.904Z,73.55
2022-08-16T00:17:11.403Z,74.14
2022-08-16T00:19:00.677Z,74.74
2022-08-16T00:21:29.207Z,74.73
2022-08-16T00:23:57.776Z,74.72
2022-08-16T00:26:36.291Z,74.59
2022-08-16T00:29:16.067Z,74.51
2022-08-16T00:31:59.487Z,74.34
2022-08-16T00:34:44.087Z,73.94
2022-08-16T00:37:18.735Z,74.49
2022-08-16T00:39:58.653Z,74.12
2022-08-16T00:42:32.164Z,74.64
2022-08-16T00:45:16.732Z,75.10
2022-08-16T00:47:48.915Z,74.91
2022-08-16T00:50:21.253Z,74.73
2022-08-16T00:52:51.301Z,75.19
2022-08-16T00:55:22.366Z,75.41
2022-08-16T00:58:00.145Z,76.02
2022-08-16T01:00:32.339Z,76.16
2022-08-16T01:03:11.729Z,75.98
2022-08-16T01:05:41.194Z,76.45
2022-08-16T01:08:36.237Z,76.33
2022-08-16T01:11:00.120Z,76.59
2022-08-16T01:13:33.194Z,77.15
2022-08-16T01:16:04.756Z,78.11
2022-08-16T01:18:45.534Z,78.73
2022-08-16T01:21:52.480Z,78.74
2022-08-16T01:24:52.018Z,77.57
2022-08-16T01:27:53.079Z,78.01
2022-08-16T01:30:27.867Z,78.39
2022-08-16T01:33:02.832Z,78.81
2022-08-16T01:35:58.963Z,79.29
2022-08-16T01:38:29.569Z,78.86
2022-08-16T01:41:02.562Z,78.66
2022-08-16T01:43:33.661Z,79.17
2022-08-16T01:46:30.206Z,79.07
2022-08-16T01:48:56.794Z,78.94
2022-08-16T01:51:27.792Z,79.23
2022-08-16T01:53:57.057Z,79.04
2022-08-16T01:56:29.003Z,79.01
2022-08-16T01:59:00.720Z,79.33
2022-08-16T02:01:31.813Z,79.15
2022-08-16T02:04:11.177Z,79.29
2022-08-16T02:06:46.087Z,78.99
2022-08-16T02:09:21.184Z,78.95
2022-08-16T02:11:56.591Z,78.92
2022-08-16T02:14:29.282Z,78.89
2022-08-16T02:17:02.438Z,79.08
2022-08-16T02:20:00.222Z,79.22
2022-08-16T02:22:34.664Z,79.25
2022-08-16T02:25:11.052Z,79.62
2022-08-16T02:27:41.206Z,79.74
2022-08-16T02:30:36.861Z,79.87
2022-08-16T02:33:04.175Z,80.04
2022-08-16T02:35:32.213Z,80.35
2022-08-16T02:38:01.456Z,80.57
2022-08-16T02:40:29.489Z,80.75
2022-08-16T02:42:57.499Z,82.38
2022-08-16T02:45:27.846Z,83.06
2022-08-16T02:48:00.224Z,84.42
2022-08-16T02:50:54.230Z,84.04
2022-08-16T02:53:23.527Z,84.53
2022-08-16T02:55:52.616Z,84.47
2022-08-16T02:58:25.170Z,84.73
2022-08-16T03:00:56.015Z,85.40
2022-08-16T03:04:49.735Z,85.67
2022-08-16T03:06:42.227Z,85.83
2022-08-16T03:09:16.308Z,85.25
2022-08-16T03:11:48.947Z,84.70
2022-08-16T03:14:21.342Z,85.15
2022-08-16T03:16:59.424Z,85.07
2022-08-16T03:19:52.751Z,84.93
2022-08-16T03:22:28.464Z,85.02
2022-08-16T03:25:02.972Z,85.08
2022-08-16T03:27:33.480Z,84.94
2022-08-16T03:30:15.271Z,85.16
2022-08-16T03:32:51.716Z,84.75
2022-08-16T03:35:32.701Z,85.35
2022-08-16T03:38:04.403Z,85.21
2022-08-16T03:40:54.103Z,84.98
2022-08-16T03:43:52.029Z,85.21
2022-08-16T03:46:48.332Z,84.99
2022-08-16T03:49:10.835Z,85.21
2022-08-16T03:51:43.067Z,85.43
2022-08-16T03:54:17.059Z,85.74
2022-08-16T03:56:56.997Z,86.13
2022-08-16T03:59:30.405Z,85.61
2022-08-16T04:02:02.794Z,85.95
2022-08-16T04:04:33.971Z,85.99
2022-08-16T04:07:07.225Z,85.90
2022-08-16T04:09:40.803Z,85.67
2022-08-16T04:12:53.706Z,85.21
2022-08-16T04:15:02.298Z,84.71
2022-08-16T04:17:35.296Z,84.45
2022-08-16T04:20:23.639Z,84.35
2022-08-16T04:22:56.564Z,84.26
2022-08-16T04:25:27.385Z,84.17
2022-08-16T04:27:55.904Z,83.98
2022-08-16T04:30:34.845Z,84.02
2022-08-16T04:33:04.680Z,84.45
2022-08-16T04:35:35.355Z,84.56
2022-08-16T04:38:10.656Z,84.47
2022-08-16T04:40:50.204Z,84.18
2022-08-16T04:43:19.054Z,83.63
2022-08-16T04:45:47.538Z,83.25
2022-08-16T04:48:34.358Z,82.45
2022-08-16T04:51:12.008Z,81.84
2022-08-16T04:53:46.286Z,81.64
2022-08-16T04:56:16.644Z,81.58
2022-08-16T04:58:46.961Z,81.51
2022-08-16T05:01:18.386Z,81.24
2022-08-16T05:03:59.739Z,80.44
2022-08-16T05:06:42.146Z,80.00
2022-08-16T05:09:29.830Z,79.33
2022-08-16T05:11:58.217Z,78.96
2022-08-16T05:14:45.677Z,78.78
2022-08-16T05:17:24.903Z,78.62
2022-08-16T05:19:58.269Z,77.95
2022-08-16T05:22:39.404Z,77.36
2022-08-16T05:25:16.012Z,77.20
2022-08-16T05:27:49.873Z,76.96
2022-08-16T05:30:34.485Z,76.58
2022-08-16T05:33:16.289Z,76.40
2022-08-16T05:35:55.478Z,76.49
2022-08-16T05:38:38.934Z,76.94
2022-08-16T05:41:13.819Z,76.70
2022-08-16T05:43:47.805Z,76.80
2022-08-16T05:46:33.834Z,76.37
2022-08-16T05:49:16.467Z,75.61
2022-08-16T05:51:51.210Z,75.70
2022-08-16T05:54:24.703Z,75.09
2022-08-16T05:56:56.674Z,74.60
2022-08-16T05:59:26.972Z,74.34
2022-08-16T06:01:56.691Z,74.33
2022-08-16T06:04:34.878Z,73.64
2022-08-16T06:07:09.089Z,73.29
2022-08-16T06:09:59.871Z,72.64
2022-08-16T06:12:31.740Z,71.90
2022-08-16T06:15:10.903Z,71.64
2022-08-16T06:17:43.797Z,71.23
2022-08-16T06:20:34.736Z,70.88
2022-08-16T06:23:21.652Z,71.28
2022-08-16T06:25:57.197Z,71.15
2022-08-16T06:28:35.537Z,70.81
2022-08-16T06:31:12.300Z,70.08
2022-08-16T06:33:44.723Z,69.68
2022-08-16T06:36:17.009Z,69.34
2022-08-16T06:38:59.765Z,68.95
2022-08-16T06:41:53.830Z,68.08
2022-08-16T06:44:44.260Z,67.83
2022-08-16T06:47:25.320Z,67.51
2022-08-16T06:50:28.858Z,67.31
2022-08-16T06:53:03.863Z,67.07
2022-08-16T06:55:38.626Z,66.31
2022-08-16T06:58:21.917Z,65.87
2022-08-16T07:01:02.671Z,65.93
2022-08-16T07:03:55.581Z,65.95
2022-08-16T07:06:21.744Z,65.07
2022-08-16T07:08:50.390Z,65.37
2022-08-16T07:11:20.978Z,64.83
2022-08-16T07:14:26.498Z,64.35
2022-08-16T07:16:59.243Z,63.68
2022-08-16T07:20:01.476Z,62.94
2022-08-16T07:22:37.873Z,62.39
2022-08-16T07:25:16.065Z,61.14
2022-08-16T07:27:45.458Z,60.74
2022-08-16T07:30:39.091Z,60.23
2022-08-16T07:33:07.523Z,59.68
2022-08-16T07:35:44.330Z,59.15
2022-08-16T07:38:20.057Z,58.77
2022-08-16T07:41:01.245Z,57.87
2022-08-16T07:43:31.877Z,56.94
2022-08-16T07:46:04.358Z,56.91
2022-08-16T07:48:36.859Z,56.17
2022-08-16T07:51:08.960Z,55.59
2022-08-16T07:53:43.824Z,55.27
2022-08-16T07:56:14.543Z,54.58
2022-08-16T07:58:43.492Z,54.36
2022-08-16T08:01:15.205Z,54.00
2022-08-16T08:03:52.254Z,54.04
2022-08-16T08:06:27.838Z,53.54
2022-08-16T08:09:00.697Z,53.53
2022-08-16T08:11:30.247Z,53.28
2022-08-16T08:14:03.079Z,53.09
2022-08-16T08:16:38.135Z,51.97
2022-08-16T08:19:26.490Z,52.76
2022-08-16T08:22:01.507Z,52.86
2022-08-16T08:24:38.980Z,52.25
2022-08-16T08:27:13.463Z,51.86
2022-08-16T08:30:52.391Z,51.41
2022-08-16T08:32:57.604Z,51.46
2022-08-16T08:35:30.285Z,51.24
2022-08-16T08:38:00.445Z,51.30
2022-08-16T08:40:30.983Z,51.19
2022-08-16T08:43:11.409Z,50.79
2022-08-16T08:45:47.810Z,50.51
2022-08-16T08:48:34.112Z,50.25
2022-08-16T08:51:14.330Z,49.97
2022-08-16T08:53:57.607Z,49.75
2022-08-16T08:56:32.379Z,49.33
2022-08-16T08:59:32.085Z,48.55
2022-08-16T09:02:00.117Z,46.83
2022-08-16T09:04:34.879Z,45.96
2022-08-16T09:07:05.973Z,45.01
2022-08-16T09:09:41.011Z,44.84
2022-08-16T09:12:36.233Z,44.01
2022-08-16T09:15:13.746Z,43.08
2022-08-16T09:17:51.642Z,42.79
2022-08-16T09:20:23.796Z,42.33
2022-08-16T09:22:56.212Z,41.69
2022-08-16T09:25:33.516Z,40.90
2022-08-16T09:28:08.988Z,40.42
2022-08-16T09:30:43.172Z,40.76
2022-08-16T09:33:12.989Z,41.20
2022-08-16T09:35:42.593Z,41.11
2022-08-16T09:38:31.441Z,41.16
2022-08-16T09:41:02.033Z,40.92
2022-08-16T09:43:59.632Z,40.21
2022-08-16T09:46:45.785Z,39.85
2022-08-16T09:49:05.779Z,39.36
2022-08-16T09:51:37.317Z,38.73
2022-08-16T09:54:09.698Z,37.47
2022-08-16T09:56:39.539Z,37.35
2022-08-16T09:59:23.538Z,36.33
2022-08-16T10:01:53.444Z,37.04
2022-08-16T10:04:33.435Z,36.90
2022-08-16T10:07:15.226Z,36.45
2022-08-16T10:09:55.355Z,36.66
2022-08-16T10:12:46.750Z,34.69
2022-08-16T10:15:23.989Z,34.77
2022-08-16T10:18:01.224Z,35.23
2022-08-16T10:20:38.250Z,35.31
2022-08-16T10:23:08.587Z,36.22
2022-08-16T10:27:18.899Z,35.81
2022-08-16T10:28:39.864Z,35.80
2022-08-16T10:31:14.448Z,35.72
2022-08-16T10:33:46.740Z,36.34
2022-08-16T10:36:38.758Z,36.37
2022-08-16T10:39:05.216Z,36.85
2022-08-16T10:41:36.157Z,37.25
2022-08-16T10:44:04.586Z,36.92
2022-08-16T10:46:41.794Z,36.73
2022-08-16T10:49:18.236Z,36.95
2022-08-16T10:52:02.037Z,37.19
2022-08-16T10:54:33.891Z,37.41
2022-08-16T10:57:24.430Z,38.53
2022-08-16T10:59:58.283Z,38.75
2022-08-16T11:03:37.599Z,38.09
2022-08-16T11:05:16.453Z,37.77
2022-08-16T11:07:52.279Z,37.45
2022-08-16T11:16:26.421Z,37.77
2022-08-16T11:19:05.664Z,38.34
2022-08-16T11:24:41.410Z,38.66
2022-08-16T11:27:19.574Z,39.05
2022-08-16T11:29:52.262Z,39.09
2022-08-16T11:32:29.900Z,38.55
2022-08-16T11:35:10.323Z,39.22
2022-08-16T11:40:36.274Z,39.72
2022-08-16T11:43:06.749Z,40.17
2022-08-16T11:45:38.192Z,40.65
2022-08-16T11:48:06.017Z,41.09
2022-08-16T11:50:35.025Z,40.53
2022-08-16T11:53:04.043Z,40.75
2022-08-16T11:55:32.905Z,41.05
2022-08-16T11:58:01.476Z,41.08
2022-08-16T12:00:49.768Z,41.13
2022-08-16T12:03:21.085Z,41.68
2022-08-16T12:06:00.840Z,41.77
2022-08-16T12:08:29.834Z,42.31
2022-08-16T12:11:02.393Z,41.92
2022-08-16T12:13:30.615Z,41.56
2022-08-16T12:15:58.019Z,41.61
2022-08-16T12:18:25.689Z,41.80
2022-08-16T12:20:55.197Z,41.82
2022-08-16T12:23:26.211Z,42.06
2022-08-16T12:25:53.468Z,42.42
2022-08-16T12:28:36.648Z,42.19
2022-08-16T12:31:11.057Z,42.31
2022-08-16T12:33:45.097Z,43.05
2022-08-16T12:36:14.167Z,42.15
2022-08-16T12:38:48.237Z,42.28
2022-08-16T12:41:24.655Z,42.20
2022-08-16T12:43:57.067Z,42.24
2022-08-16T12:46:31.146Z,41.71
2022-08-16T12:49:03.554Z,41.80
2022-08-16T12:51:59.555Z,41.04
2022-08-16T12:54:25.083Z,41.19
2022-08-16T12:56:52.686Z,41.68
2022-08-16T12:59:21.760Z,40.89
2022-08-16T13:01:58.336Z,40.68
2022-08-16T13:04:33.287Z,40.09
2022-08-16T13:09:42.388Z,40.10
2022-08-16T13:12:25.000Z,40.01
2022-08-16T13:14:54.121Z,40.56
2022-08-16T13:17:26.315Z,41.84
2022-08-16T13:20:07.002Z,41.26
2022-08-16T13:22:49.969Z,41.49
2022-08-16T13:25:22.977Z,42.03
2022-08-16T13:28:14.969Z,41.63
2022-08-16T13:30:49.631Z,39.94
2022-08-16T13:33:29.836Z,39.79
2022-08-16T13:36:01.436Z,40.53
2022-08-16T13:38:37.061Z,40.04
2022-08-16T13:41:11.173Z,40.00
2022-08-16T13:43:40.032Z,40.37
2022-08-16T13:46:07.978Z,39.51
2022-08-16T13:48:44.764Z,38.74
2022-08-16T13:51:19.041Z,37.49
2022-08-16T13:53:49.727Z,37.51
2022-08-16T13:56:25.151Z,39.00
2022-08-16T13:58:54.873Z,39.74
2022-08-16T14:01:23.374Z,41.10
2022-08-16T14:03:54.636Z,42.14
2022-08-16T14:06:24.884Z,43.46
2022-08-16T14:09:06.136Z,43.67
2022-08-16T14:11:35.680Z,44.83
2022-08-16T14:14:05.300Z,45.58
2022-08-16T14:16:34.815Z,47.74
2022-08-16T14:19:03.757Z,45.59
2022-08-16T14:21:34.889Z,45.89
2022-08-16T14:24:07.871Z,46.47
2022-08-16T14:26:44.056Z,47.38
2022-08-16T14:29:11.658Z,48.09
2022-08-16T14:31:39.848Z,49.55
2022-08-16T14:34:11.141Z,50.60
2022-08-16T14:36:40.843Z,55.51
2022-08-16T14:39:09.640Z,64.07
2022-08-16T14:41:37.722Z,62.26
2022-08-16T14:44:08.372Z,66.42
2022-08-16T14:46:36.379Z,68.69
2022-08-16T14:49:04.611Z,68.98
2022-08-16T14:51:38.041Z,70.83
2022-08-16T14:54:05.828Z,71.56
2022-08-16T14:56:43.003Z,72.31
2022-08-16T14:59:14.263Z,72.88
2022-08-16T15:01:57.378Z,72.61
2022-08-16T15:04:39.965Z,74.08
2022-08-16T15:07:11.088Z,73.19
2022-08-16T15:09:59.991Z,75.32
2022-08-16T15:12:33.907Z,74.34
2022-08-16T15:15:12.537Z,74.56
2022-08-16T15:17:56.184Z,73.43
2022-08-16T15:20:31.679Z,72.23
2022-08-16T15:23:02.159Z,72.12
2022-08-16T15:25:34.227Z,72.00
2022-08-16T15:28:05.599Z,72.77
2022-08-16T15:30:57.780Z,72.06
2022-08-16T15:33:27.653Z,70.93
2022-08-16T15:35:58.085Z,70.34
2022-08-16T15:38:55.343Z,69.14
2022-08-16T15:41:43.073Z,67.72
2022-08-16T15:44:22.327Z,67.71
2022-08-16T15:46:56.355Z,67.50
2022-08-16T15:49:37.296Z,67.07
2022-08-16T15:52:12.286Z,64.79
2022-08-16T15:54:52.572Z,64.47
2022-08-16T15:57:23.289Z,64.78
2022-08-16T15:59:56.087Z,63.59
2022-08-16T16:02:38.630Z,60.39
2022-08-16T16:05:10.249Z,56.77
2022-08-16T16:07:40.694Z,59.09
2022-08-16T16:10:13.039Z,59.40
2022-08-16T16:12:52.988Z,60.04
2022-08-16T16:15:25.065Z,60.83
2022-08-16T16:17:53.737Z,60.36
2022-08-16T16:20:24.206Z,60.71
2022-08-16T16:22:52.587Z,61.20
2022-08-16T16:25:20.464Z,61.52
2022-08-16T16:27:49.118Z,61.31
2022-08-16T16:30:37.794Z,60.99
2022-08-16T16:33:21.264Z,57.63
2022-08-16T16:35:57.259Z,53.71
2022-08-16T16:38:30.992Z,51.00
2022-08-16T16:41:02.515Z,50.28
2022-08-16T16:43:31.433Z,51.57
2022-08-16T16:46:01.643Z,51.33
2022-08-16T16:48:34.818Z,51.05
2022-08-16T16:51:09.127Z,48.77
2022-08-16T16:53:41.552Z,50.25
2022-08-16T16:56:19.834Z,49.93
2022-08-16T16:59:01.449Z,49.21
2022-08-16T17:01:35.019Z,48.85
2022-08-16T17:04:31.971Z,47.18
2022-08-16T17:07:02.135Z,47.13
2022-08-16T17:09:30.457Z,46.77
2022-08-16T17:11:58.628Z,47.22
2022-08-16T17:14:31.891Z,48.44
2022-08-16T17:17:04.657Z,49.24
2022-08-16T17:19:32.222Z,50.93
2022-08-16T17:22:00.605Z,52.62
2022-08-16T17:24:39.842Z,53.82
2022-08-16T17:27:08.306Z,55.26
2022-08-16T17:29:45.909Z,55.70
2022-08-16T17:32:47.509Z,56.48
2022-08-16T17:35:18.172Z,56.98
2022-08-16T17:37:51.509Z,57.47
2022-08-16T17:40:40.346Z,58.33
2022-08-16T17:43:16.421Z,58.85
2022-08-16T17:45:44.530Z,59.10
2022-08-16T17:48:12.335Z,59.43
2022-08-16T17:50:41.762Z,59.39
2022-08-16T17:53:10.447Z,59.15
2022-08-16T17:55:42.194Z,59.57
2022-08-16T17:58:22.930Z,60.04
2022-08-16T18:00:53.350Z,60.60
2022-08-16T18:04:02.993Z,62.52
2022-08-16T18:06:19.233Z,62.01
2022-08-16T18:08:48.425Z,62.39
2022-08-16T18:11:18.316Z,62.20
2022-08-16T18:13:46.832Z,62.60
2022-08-16T18:16:16.944Z,63.05
2022-08-16T18:18:46.155Z,63.43
2022-08-16T18:21:34.068Z,63.85
2022-08-16T18:24:01.766Z,64.58
2022-08-16T18:26:28.789Z,64.99
2022-08-16T18:28:56.333Z,66.83
2022-08-16T18:31:23.267Z,68.08
2022-08-16T18:33:54.724Z,67.75
2022-08-16T18:36:25.134Z,67.45
2022-08-16T18:38:53.310Z,67.23
2022-08-16T18:41:22.584Z,67.42
2022-08-16T18:43:58.839Z,67.82
2022-08-16T18:46:39.965Z,67.85
2022-08-16T18:49:09.474Z,67.61
2022-08-16T18:51:42.616Z,67.52
2022-08-16T18:54:12.485Z,68.18
2022-08-16T18:56:56.438Z,67.98
2022-08-16T18:59:31.054Z,68.04
2022-08-16T19:02:05.354Z,68.14
2022-08-16T19:04:50.466Z,68.24
2022-08-16T19:07:31.271Z,68.88
2022-08-16T19:10:01.269Z,69.19
2022-08-16T19:12:38.540Z,68.74
2022-08-16T19:15:15.742Z,69.07
2022-08-16T19:17:45.469Z,69.29
2022-08-16T19:20:19.990Z,69.03
2022-08-16T19:23:05.813Z,70.33
2022-08-16T19:25:48.311Z,70.66
2022-08-16T19:28:49.620Z,70.31
2022-08-16T19:31:20.620Z,69.97
2022-08-16T19:33:53.420Z,69.72
2022-08-16T19:36:34.059Z,70.43
2022-08-16T19:39:07.276Z,70.10
2022-08-16T19:41:38.504Z,70.93
2022-08-16T19:44:06.897Z,71.06
2022-08-16T19:46:35.708Z,71.36
2022-08-16T19:49:03.888Z,71.98
2022-08-16T19:51:31.433Z,73.69
2022-08-16T19:53:58.412Z,73.52
2022-08-16T19:56:27.150Z,73.47
2022-08-16T20:01:44.549Z,73.88
2022-08-16T20:04:13.014Z,75.07
2022-08-16T20:06:43.524Z,75.98
2022-08-16T20:09:15.391Z,76.08
2022-08-16T20:11:45.012Z,75.58
2022-08-16T20:14:24.466Z,75.67
2022-08-16T20:16:58.935Z,76.22
2022-08-16T20:19:28.203Z,75.50
2022-08-16T20:21:56.725Z,75.59
2022-08-16T20:24:40.168Z,75.80
2022-08-16T20:27:12.428Z,75.92
2022-08-16T20:29:41.671Z,75.45
2022-08-16T20:32:13.326Z,75.96
2022-08-16T20:34:42.057Z,76.10
2022-08-16T20:37:12.866Z,76.03
2022-08-16T20:39:41.373Z,75.98
2022-08-16T20:42:08.416Z,75.88
2022-08-16T20:44:35.824Z,75.63
2022-08-16T20:47:03.044Z,75.57
2022-08-16T20:49:30.713Z,74.60
2022-08-16T20:51:59.658Z,74.88
2022-08-16T20:54:29.584Z,75.52
2022-08-16T20:56:56.937Z,76.29
2022-08-16T20:59:24.409Z,76.53
2022-08-16T21:01:52.204Z,77.19
2022-08-16T21:04:21.777Z,77.81
2022-08-16T21:06:54.314Z,78.01
2022-08-16T21:09:27.907Z,78.85
2022-08-16T21:11:59.031Z,78.97
2022-08-16T21:14:26.141Z,80.00
2022-08-16T21:16:55.732Z,79.37
2022-08-16T21:19:23.184Z,79.38
2022-08-16T21:21:50.564Z,79.79
2022-08-16T21:24:17.998Z,81.21
2022-08-16T21:26:55.069Z,80.89
2022-08-16T21:29:25.118Z,80.86
2022-08-16T21:32:12.604Z,81.06
2022-08-16T21:34:41.309Z,81.01
2022-08-16T21:37:08.550Z,80.70
2022-08-16T21:39:36.444Z,80.87
2022-08-16T21:42:12.317Z,81.45
2022-08-16T21:44:39.959Z,82.27
2022-08-16T21:47:08.170Z,81.06
2022-08-16T21:49:37.854Z,80.75
2022-08-16T21:52:07.611Z,80.35
2022-08-16T21:54:35.771Z,79.96
2022-08-16T21:57:10.179Z,79.32
2022-08-16T21:59:38.618Z,79.25
2022-08-16T22:02:06.883Z,79.49
2022-08-16T22:04:37.580Z,79.95
2022-08-16T22:07:06.049Z,80.05
2022-08-16T22:09:33.430Z,80.50
2022-08-16T22:12:03.873Z,80.68
2022-08-16T22:14:31.047Z,81.33
2022-08-16T22:16:58.660Z,82.57
2022-08-16T22:19:25.887Z,84.06
2022-08-16T22:21:53.255Z,83.68
2022-08-16T22:24:20.552Z,83.92
2022-08-16T22:26:48.128Z,83.86
2022-08-16T22:29:15.260Z,83.72
2022-08-16T22:31:44.488Z,83.32
2022-08-16T22:34:12.450Z,82.73
2022-08-16T22:36:40.085Z,82.76
2022-08-16T22:39:10.966Z,83.07
2022-08-16T22:41:40.283Z,82.73
2022-08-16T22:44:07.597Z,82.66
2022-08-16T22:46:36.916Z,82.80
2022-08-16T22:49:08.175Z,84.34
2022-08-16T22:51:38.314Z,84.12
2022-08-16T22:54:42.570Z,83.55
2022-08-16T22:56:54.834Z,82.86
2022-08-16T22:59:21.839Z,83.43
2022-08-16T23:01:49.387Z,82.07
2022-08-16T23:04:18.360Z,81.89
2022-08-16T23:06:47.601Z,81.23
2022-08-16T23:09:14.586Z,80.66
2022-08-16T23:11:42.748Z,80.77
2022-08-16T23:14:10.030Z,80.80
2022-08-16T23:16:37.385Z,80.49
2022-08-16T23:19:11.135Z,80.86
2022-08-16T23:21:41.948Z,80.60
2022-08-16T23:24:10.340Z,80.93
2022-08-16T23:26:46.267Z,81.69
2022-08-16T23:29:23.642Z,81.61
2022-08-16T23:32:11.252Z,80.99
2022-08-16T23:34:38.541Z,81.00
2022-08-16T23:37:06.755Z,81.02
2022-08-16T23:39:36.190Z,81.02
2022-08-16T23:42:12.595Z,81.23
2022-08-16T23:44:57.932Z,81.90
2022-08-16T23:47:26.471Z,82.58
2022-08-16T23:50:01.203Z,83.09
2022-08-16T23:52:53.473Z,84.35
2022-08-16T23:55:17.944Z,83.90
2022-08-16T23:57:46.266Z,84.56
